createdAt,value
2022-09-06T00:01:23.675Z,6.43
2022-09-06T00:03:51.986Z,4.80
2022-09-06T00:06:20.730Z,4.83
2022-09-06T00:08:49.264Z,5.67
2022-09-06T00:11:17.862Z,6.07
2022-09-06T00:13:46.187Z,5.73
2022-09-06T00:16:16.392Z,4.97
2022-09-06T00:18:44.646Z,4.50
2022-09-06T00:21:16.754Z,7.07
2022-09-06T00:23:44.838Z,5.53
2022-09-06T00:26:13.118Z,6.43
2022-09-06T00:28:41.388Z,6.20
2022-09-06T00:31:10.861Z,9.43
2022-09-06T00:33:40.470Z,6.90
2022-09-06T00:36:08.522Z,6.57
2022-09-06T00:38:38.557Z,6.67
2022-09-06T00:41:07.130Z,4.37
2022-09-06T00:43:34.950Z,4.83
2022-09-06T00:46:03.706Z,5.73
2022-09-06T00:48:31.692Z,6.50
2022-09-06T00:51:05.144Z,4.00
2022-09-06T00:53:33.685Z,3.93
2022-09-06T00:56:01.740Z,4.60
2022-09-06T00:58:29.580Z,4.67
2022-09-06T01:00:57.999Z,4.70
2022-09-06T01:03:26.575Z,4.40
2022-09-06T01:05:58.185Z,3.87
2022-09-06T01:08:31.557Z,5.27
2022-09-06T01:11:06.647Z,6.03
2022-09-06T01:13:39.030Z,4.30
2022-09-06T01:16:11.921Z,3.90
2022-09-06T01:18:52.964Z,4.13
2022-09-06T01:21:27.672Z,4.17
2022-09-06T01:24:19.777Z,4.97
2022-09-06T01:26:58.396Z,4.33
2022-09-06T01:29:31.635Z,4.70
2022-09-06T01:32:06.127Z,3.87
2022-09-06T01:34:36.664Z,6.63
2022-09-06T01:37:10.378Z,5.03
2022-09-06T01:39:39.893Z,7.13
2022-09-06T01:42:09.666Z,3.57
2022-09-06T01:44:39.383Z,4.03
2022-09-06T01:47:14.249Z,3.87
2022-09-06T01:49:45.770Z,5.53
2022-09-06T01:52:16.065Z,4.43
2022-09-06T01:55:00.734Z,4.83
2022-09-06T01:57:37.490Z,5.23
2022-09-06T02:00:09.912Z,5.47
2022-09-06T02:02:43.118Z,7.00
2022-09-06T02:05:15.317Z,8.73
2022-09-06T02:07:45.512Z,5.00
2022-09-06T02:10:16.201Z,6.10
2022-09-06T02:12:46.510Z,5.43
2022-09-06T02:15:18.147Z,7.70
2022-09-06T02:17:48.963Z,6.70
2022-09-06T02:20:18.582Z,7.93
2022-09-06T02:22:48.623Z,13.00
2022-09-06T02:25:20.284Z,15.30
2022-09-06T02:27:48.406Z,9.90
2022-09-06T02:30:17.752Z,8.37
2022-09-06T02:32:49.294Z,5.83
2022-09-06T02:35:17.332Z,6.80
2022-09-06T02:37:46.019Z,7.93
2022-09-06T02:40:14.299Z,6.50
2022-09-06T02:42:42.883Z,6.30
2022-09-06T02:45:11.406Z,5.83
2022-09-06T02:47:40.533Z,7.43
2022-09-06T02:50:09.289Z,7.00
2022-09-06T02:52:37.096Z,8.33
2022-09-06T02:55:05.300Z,7.97
2022-09-06T02:57:33.397Z,9.30
2022-09-06T03:00:02.701Z,9.90
2022-09-06T03:02:30.786Z,9.77
2022-09-06T03:05:00.419Z,9.23
2022-09-06T03:07:28.404Z,6.93
2022-09-06T03:09:57.235Z,7.27
2022-09-06T03:12:25.222Z,5.30
2022-09-06T03:14:54.992Z,6.77
2022-09-06T03:17:23.343Z,9.00
2022-09-06T03:19:51.230Z,7.30
2022-09-06T03:22:20.483Z,6.87
2022-09-06T03:24:49.400Z,7.50
2022-09-06T03:27:17.156Z,6.80
2022-09-06T03:29:45.989Z,5.00
2022-09-06T03:32:13.954Z,6.13
2022-09-06T03:34:42.197Z,8.83
2022-09-06T03:37:10.030Z,7.73
2022-09-06T03:39:39.727Z,7.53
2022-09-06T03:42:07.685Z,6.17
2022-09-06T03:44:35.900Z,8.20
2022-09-06T03:47:04.026Z,8.93
2022-09-06T03:49:31.963Z,7.80
2022-09-06T03:52:00.486Z,9.30
2022-09-06T03:54:29.417Z,8.13
2022-09-06T03:56:58.661Z,8.17
2022-09-06T03:59:26.472Z,7.70
2022-09-06T04:01:54.644Z,7.60
2022-09-06T04:04:22.540Z,8.40
2022-09-06T04:06:50.559Z,8.63
2022-09-06T04:09:18.482Z,7.37
2022-09-06T04:11:46.470Z,6.67
2022-09-06T04:14:15.665Z,8.83
2022-09-06T04:16:43.548Z,5.90
2022-09-06T04:19:13.015Z,7.37
2022-09-06T04:21:40.962Z,8.30
2022-09-06T04:24:08.947Z,6.63
2022-09-06T04:26:36.770Z,7.97
2022-09-06T04:29:04.824Z,7.00
2022-09-06T04:31:34.206Z,6.83
2022-09-06T04:34:02.008Z,6.17
2022-09-06T04:36:29.995Z,8.27
2022-09-06T04:38:57.729Z,6.20
2022-09-06T04:41:25.541Z,6.53
2022-09-06T04:43:53.450Z,6.80
2022-09-06T04:46:23.149Z,7.57
2022-09-06T04:48:52.902Z,6.67
2022-09-06T04:51:21.593Z,10.23
2022-09-06T04:53:52.595Z,7.20
2022-09-06T04:56:21.547Z,8.67
2022-09-06T04:58:50.204Z,6.50
2022-09-06T05:01:18.674Z,7.90
2022-09-06T05:03:46.596Z,8.53
2022-09-06T05:06:21.729Z,9.60
2022-09-06T05:08:52.714Z,9.10
2022-09-06T05:11:21.631Z,10.60
2022-09-06T05:13:50.623Z,8.20
2022-09-06T05:16:18.782Z,8.10
2022-09-06T05:18:48.103Z,8.67
2022-09-06T05:21:17.851Z,11.80
2022-09-06T05:23:45.831Z,7.13
2022-09-06T05:26:13.721Z,10.33
2022-09-06T05:28:43.821Z,8.53
2022-09-06T05:31:12.899Z,7.23
2022-09-06T05:33:41.119Z,11.23
2022-09-06T05:36:09.455Z,8.70
2022-09-06T05:38:38.865Z,11.60
2022-09-06T05:41:06.728Z,8.83
2022-09-06T05:43:34.648Z,8.33
2022-09-06T05:46:02.643Z,6.63
2022-09-06T05:48:36.686Z,8.00
2022-09-06T05:51:05.792Z,9.53
2022-09-06T05:53:39.319Z,7.90
2022-09-06T05:56:07.555Z,9.60
2022-09-06T05:58:35.542Z,7.77
2022-09-06T06:01:09.864Z,9.50
2022-09-06T06:03:39.004Z,9.80
2022-09-06T06:06:07.070Z,8.97
2022-09-06T06:08:35.855Z,11.13
2022-09-06T06:11:04.940Z,8.43
2022-09-06T06:13:35.126Z,8.67
2022-09-06T06:16:03.684Z,8.53
2022-09-06T06:18:31.657Z,10.73
2022-09-06T06:21:12.822Z,8.20
2022-09-06T06:23:41.152Z,8.27
2022-09-06T06:26:10.536Z,8.80
2022-09-06T06:28:38.630Z,10.27
2022-09-06T06:31:07.128Z,7.80
2022-09-06T06:33:36.401Z,8.80
2022-09-06T06:36:05.398Z,9.03
2022-09-06T06:38:33.669Z,6.77
2022-09-06T06:41:06.810Z,9.37
2022-09-06T06:43:38.190Z,9.27
2022-09-06T06:46:06.573Z,9.93
2022-09-06T06:48:34.433Z,8.00
2022-09-06T06:51:02.931Z,7.67
2022-09-06T06:53:30.844Z,7.10
2022-09-06T06:55:58.633Z,9.90
2022-09-06T06:58:27.093Z,9.63
2022-09-06T07:00:56.729Z,9.33
2022-09-06T07:03:24.654Z,7.63
2022-09-06T07:08:36.817Z,11.77
2022-09-06T07:11:05.311Z,7.90
2022-09-06T07:13:34.365Z,8.73
2022-09-06T07:16:11.114Z,9.17
2022-09-06T07:18:42.111Z,9.80
2022-09-06T07:26:39.724Z,7.73
2022-09-06T07:29:08.662Z,8.20
2022-09-06T07:34:27.129Z,6.87
2022-09-06T07:36:55.419Z,10.50
2022-09-06T07:39:23.627Z,7.60
2022-09-06T07:41:51.654Z,6.43
2022-09-06T07:44:19.485Z,8.60
2022-09-06T07:55:20.828Z,7.73
2022-09-06T07:57:49.023Z,5.70
2022-09-06T08:00:17.345Z,5.77
2022-09-06T08:02:46.847Z,10.43
2022-09-06T08:10:51.341Z,8.13
2022-09-06T08:13:21.564Z,6.40
2022-09-06T08:15:49.801Z,6.00
2022-09-06T08:18:19.002Z,10.80
2022-09-06T08:20:46.823Z,9.93
2022-09-06T08:23:14.638Z,8.03
2022-09-06T08:25:42.463Z,5.80
2022-09-06T08:28:10.312Z,5.23
2022-09-06T08:30:38.286Z,7.63
2022-09-06T08:33:06.044Z,4.83
2022-09-06T08:35:35.146Z,4.93
2022-09-06T08:38:05.562Z,6.30
2022-09-06T08:40:33.802Z,9.37
2022-09-06T08:43:02.391Z,7.53
2022-09-06T08:45:30.277Z,5.50
2022-09-06T08:47:59.131Z,6.70
2022-09-06T08:50:29.902Z,5.47
2022-09-06T08:53:18.179Z,5.53
2022-09-06T08:55:48.862Z,7.47
2022-09-06T08:58:22.265Z,7.07
2022-09-06T09:00:52.879Z,7.20
2022-09-06T09:03:22.997Z,5.90
2022-09-06T09:05:53.304Z,5.83
2022-09-06T09:08:25.174Z,6.40
2022-09-06T09:10:54.819Z,6.80
2022-09-06T09:13:26.089Z,4.87
2022-09-06T09:15:54.309Z,4.33
2022-09-06T09:18:24.783Z,4.72
2022-09-06T09:20:54.988Z,4.37
2022-09-06T09:23:24.443Z,6.63
2022-09-06T09:25:54.289Z,5.53
2022-09-06T09:28:24.946Z,5.80
2022-09-06T09:30:53.817Z,4.63
2022-09-06T09:33:28.244Z,3.97
2022-09-06T09:35:57.048Z,4.57
2022-09-06T09:38:28.318Z,4.45
2022-09-06T09:40:57.312Z,4.53
2022-09-06T09:43:26.461Z,4.40
2022-09-06T09:46:17.063Z,4.80
2022-09-06T09:48:49.767Z,4.53
2022-09-06T09:51:26.530Z,4.60
2022-09-06T09:53:58.097Z,4.33
2022-09-06T09:56:29.957Z,3.77
2022-09-06T09:58:59.366Z,6.27
2022-09-06T10:01:29.008Z,5.57
2022-09-06T10:07:08.579Z,3.60
2022-09-06T10:09:40.860Z,6.10
2022-09-06T10:12:08.840Z,3.65
2022-09-06T10:14:41.913Z,4.10
2022-09-06T10:17:09.768Z,4.45
2022-09-06T10:19:39.406Z,4.43
2022-09-06T10:22:13.828Z,4.65
2022-09-06T10:24:52.032Z,7.18
2022-09-06T10:27:23.282Z,4.20
2022-09-06T10:29:54.410Z,4.10
2022-09-06T10:32:31.507Z,3.67
2022-09-06T10:35:05.716Z,3.58
2022-09-06T10:37:48.792Z,3.83
2022-09-06T10:40:25.773Z,3.63
2022-09-06T10:42:54.456Z,4.05
2022-09-06T10:45:29.578Z,3.22
2022-09-06T10:47:58.746Z,3.33
2022-09-06T10:50:30.455Z,3.10
2022-09-06T10:53:01.391Z,2.88
2022-09-06T10:55:32.835Z,2.35
2022-09-06T10:58:20.937Z,4.10
2022-09-06T11:00:52.239Z,3.63
2022-09-06T11:06:14.023Z,2.22
2022-09-06T11:08:49.038Z,2.92
2022-09-06T11:11:24.434Z,3.22
2022-09-06T11:13:52.524Z,4.75
2022-09-06T11:16:23.727Z,4.40
2022-09-06T11:18:54.704Z,2.35
2022-09-06T11:21:31.626Z,2.60
2022-09-06T11:24:06.499Z,3.38
2022-09-06T11:26:38.218Z,2.40
2022-09-06T11:29:08.215Z,2.80
2022-09-06T11:34:25.952Z,2.80
2022-09-06T11:36:55.820Z,2.60
2022-09-06T11:42:31.563Z,3.35
2022-09-06T11:45:21.679Z,3.38
2022-09-06T11:47:49.736Z,2.70
2022-09-06T11:50:35.449Z,2.33
2022-09-06T11:53:14.920Z,2.72
2022-09-06T11:55:44.799Z,2.40
2022-09-06T11:58:21.543Z,2.58
2022-09-06T12:01:05.252Z,2.20
2022-09-06T12:04:07.353Z,3.53
2022-09-06T12:06:39.884Z,4.13
2022-09-06T12:09:26.826Z,2.83
2022-09-06T12:11:56.596Z,4.70
2022-09-06T12:14:39.662Z,1.95
2022-09-06T12:17:28.953Z,3.70
2022-09-06T12:20:05.078Z,3.78
2022-09-06T12:23:03.530Z,2.15
2022-09-06T12:25:49.826Z,2.10
2022-09-06T12:28:24.907Z,3.47
2022-09-06T12:30:53.079Z,2.25
2022-09-06T12:33:25.319Z,2.08
2022-09-06T12:35:56.351Z,2.45
2022-09-06T12:38:25.699Z,3.40
2022-09-06T12:40:58.691Z,2.30
2022-09-06T12:43:36.121Z,1.90
2022-09-06T12:46:07.348Z,2.03
2022-09-06T12:48:39.180Z,2.00
2022-09-06T12:51:08.318Z,2.38
2022-09-06T12:53:37.135Z,2.45
2022-09-06T12:56:06.715Z,1.83
2022-09-06T12:58:36.419Z,1.98
2022-09-06T13:01:12.821Z,2.00
2022-09-06T13:03:42.771Z,4.33
2022-09-06T13:06:13.170Z,2.88
2022-09-06T13:08:42.708Z,2.10
2022-09-06T13:11:13.484Z,2.77
2022-09-06T13:13:49.930Z,2.23
2022-09-06T13:16:21.715Z,3.10
2022-09-06T13:18:55.948Z,3.60
2022-09-06T13:21:27.651Z,2.07
2022-09-06T13:23:57.768Z,2.80
2022-09-06T13:26:36.007Z,3.13
2022-09-06T13:29:22.926Z,5.47
2022-09-06T13:31:51.910Z,1.67
2022-09-06T13:34:24.299Z,1.93
2022-09-06T13:36:53.033Z,4.63
2022-09-06T13:39:34.037Z,4.60
2022-09-06T13:42:02.761Z,1.90
2022-09-06T13:44:33.272Z,1.83
2022-09-06T13:47:01.304Z,1.50
2022-09-06T13:49:30.960Z,1.83
2022-09-06T13:52:00.536Z,2.47
2022-09-06T13:54:28.451Z,3.10
2022-09-06T13:56:56.564Z,3.37
2022-09-06T13:59:25.584Z,2.33
2022-09-06T14:02:02.165Z,3.47
2022-09-06T14:04:30.383Z,1.40
2022-09-06T14:06:58.452Z,3.73
2022-09-06T14:09:26.541Z,1.73
2022-09-06T14:11:54.771Z,2.50
2022-09-06T14:14:22.790Z,2.43
2022-09-06T14:16:50.908Z,1.80
2022-09-06T14:19:20.239Z,4.43
2022-09-06T14:21:51.239Z,2.03
2022-09-06T14:24:19.101Z,1.13
2022-09-06T14:26:47.290Z,2.45
2022-09-06T14:29:15.109Z,1.50
2022-09-06T14:31:43.071Z,2.00
2022-09-06T14:34:12.668Z,1.93
2022-09-06T14:36:42.120Z,1.97
2022-09-06T14:39:10.093Z,1.50
2022-09-06T14:41:38.040Z,2.33
2022-09-06T14:44:06.496Z,2.47
2022-09-06T14:46:34.354Z,1.80
2022-09-06T14:49:03.777Z,2.90
2022-09-06T14:51:32.153Z,1.60
2022-09-06T14:54:02.888Z,3.33
2022-09-06T14:56:30.744Z,2.30
2022-09-06T14:58:59.981Z,2.10
2022-09-06T15:01:32.000Z,4.73
2022-09-06T15:04:04.596Z,2.40
2022-09-06T15:06:33.764Z,2.73
2022-09-06T15:09:05.986Z,3.90
2022-09-06T15:11:35.642Z,2.10
2022-09-06T15:14:04.129Z,3.93
2022-09-06T15:16:32.814Z,2.83
2022-09-06T15:19:02.447Z,2.00
2022-09-06T15:21:30.509Z,2.50
2022-09-06T15:23:58.866Z,1.93
2022-09-06T15:26:28.954Z,2.40
2022-09-06T15:28:56.712Z,2.27
2022-09-06T15:31:24.790Z,2.17
2022-09-06T15:33:53.015Z,3.23
2022-09-06T15:36:21.978Z,3.43
2022-09-06T15:38:50.701Z,3.10
2022-09-06T15:41:19.335Z,3.20
2022-09-06T15:43:50.959Z,3.10
2022-09-06T15:46:21.295Z,4.90
2022-09-06T15:48:50.421Z,2.47
2022-09-06T15:51:20.013Z,2.60
2022-09-06T15:53:48.059Z,3.13
2022-09-06T15:56:15.742Z,5.93
2022-09-06T15:58:43.595Z,7.73
2022-09-06T16:01:15.485Z,2.90
2022-09-06T16:03:45.762Z,2.33
2022-09-06T16:06:29.595Z,2.67
2022-09-06T16:09:03.970Z,2.77
2022-09-06T16:11:32.860Z,6.83
2022-09-06T16:14:02.365Z,3.73
2022-09-06T16:16:32.846Z,4.77
2022-09-06T16:19:01.340Z,3.60
2022-09-06T16:21:30.577Z,3.40
2022-09-06T16:23:59.135Z,2.60
2022-09-06T16:26:28.302Z,6.30
2022-09-06T16:28:56.477Z,3.10
2022-09-06T16:31:24.338Z,2.57
2022-09-06T16:33:53.887Z,4.13
2022-09-06T16:36:22.464Z,3.00
2022-09-06T16:38:50.612Z,4.00
2022-09-06T16:41:20.229Z,3.17
2022-09-06T16:43:49.347Z,6.17
2022-09-06T16:46:17.727Z,2.40
2022-09-06T16:48:45.806Z,3.73
2022-09-06T16:51:16.477Z,3.33
2022-09-06T16:53:45.520Z,3.33
2022-09-06T16:56:16.130Z,3.40
2022-09-06T16:58:44.286Z,5.30
2022-09-06T17:01:14.658Z,4.43
2022-09-06T17:03:43.109Z,4.73
2022-09-06T17:06:11.237Z,2.97
2022-09-06T17:08:40.864Z,2.80
2022-09-06T17:11:11.571Z,3.83
2022-09-06T17:13:40.621Z,3.40
2022-09-06T17:16:26.198Z,3.23
2022-09-06T17:18:54.605Z,5.57
2022-09-06T17:21:23.896Z,4.17
2022-09-06T17:23:53.438Z,4.60
2022-09-06T17:26:22.550Z,3.53
2022-09-06T17:28:50.822Z,11.60
2022-09-06T17:31:25.028Z,3.80
2022-09-06T17:33:53.966Z,12.90
2022-09-06T17:36:23.697Z,4.13
2022-09-06T17:38:53.718Z,4.27
2022-09-06T17:41:24.933Z,4.33
2022-09-06T17:43:54.665Z,4.80
2022-09-06T17:46:26.600Z,5.00
2022-09-06T17:48:56.703Z,4.83
2022-09-06T17:51:25.048Z,4.10
2022-09-06T17:53:53.626Z,5.03
2022-09-06T17:56:22.102Z,5.83
2022-09-06T17:58:55.423Z,3.43
2022-09-06T18:01:24.360Z,4.23
2022-09-06T18:03:52.616Z,4.10
2022-09-06T18:06:22.895Z,4.30
2022-09-06T18:08:52.161Z,6.23
2022-09-06T18:11:22.555Z,6.93
2022-09-06T18:13:56.928Z,7.40
2022-09-06T18:16:25.164Z,6.30
2022-09-06T18:18:54.273Z,5.67
2022-09-06T18:21:23.111Z,8.17
2022-09-06T18:23:51.531Z,7.77
2022-09-06T18:26:21.531Z,8.40
2022-09-06T18:28:49.572Z,6.50
2022-09-06T18:31:19.913Z,7.50
2022-09-06T18:33:49.201Z,5.90
2022-09-06T18:36:18.240Z,5.77
2022-09-06T18:38:46.349Z,5.17
2022-09-06T18:41:35.393Z,10.60
2022-09-06T18:44:05.441Z,5.10
2022-09-06T18:46:36.583Z,4.43
2022-09-06T18:49:06.553Z,4.83
2022-09-06T18:51:35.477Z,3.60
2022-09-06T18:54:06.595Z,3.20
2022-09-06T18:56:35.268Z,7.33
2022-09-06T18:59:03.828Z,6.47
2022-09-06T19:01:33.322Z,5.77
2022-09-06T19:04:03.893Z,3.97
2022-09-06T19:06:33.318Z,4.70
2022-09-06T19:09:05.912Z,5.60
2022-09-06T19:11:35.129Z,5.37
2022-09-06T19:14:03.724Z,4.83
2022-09-06T19:16:32.934Z,4.57
2022-09-06T19:19:04.880Z,5.03
2022-09-06T19:21:36.605Z,6.43
2022-09-06T19:24:08.842Z,5.40
2022-09-06T19:26:37.922Z,3.30
2022-09-06T19:29:09.721Z,6.00
2022-09-06T19:31:38.692Z,5.03
2022-09-06T19:34:08.561Z,3.60
2022-09-06T19:36:36.900Z,6.50
2022-09-06T19:39:06.639Z,4.43
2022-09-06T19:41:35.373Z,3.57
2022-09-06T19:44:05.906Z,5.60
2022-09-06T19:46:35.066Z,4.67
2022-09-06T19:49:03.355Z,6.40
2022-09-06T19:51:33.185Z,3.97
2022-09-06T19:54:00.993Z,4.57
2022-09-06T19:56:32.144Z,3.37
2022-09-06T19:59:02.485Z,3.67
2022-09-06T20:01:31.548Z,4.97
2022-09-06T20:04:00.307Z,3.33
2022-09-06T20:06:28.239Z,4.53
2022-09-06T20:09:01.739Z,6.80
2022-09-06T20:11:31.237Z,2.87
2022-09-06T20:13:59.329Z,3.67
2022-09-06T20:16:27.301Z,4.90
2022-09-06T20:18:55.834Z,6.63
2022-09-06T20:21:24.130Z,5.87
2022-09-06T20:23:52.883Z,3.57
2022-09-06T20:26:24.206Z,5.27
2022-09-06T20:28:55.429Z,5.93
2022-09-06T20:31:23.269Z,5.47
2022-09-06T20:33:51.443Z,4.00
2022-09-06T20:36:19.644Z,4.13
2022-09-06T20:38:48.488Z,4.73
2022-09-06T20:41:17.386Z,5.20
2022-09-06T20:43:47.150Z,5.33
2022-09-06T20:46:16.426Z,4.20
2022-09-06T20:48:45.366Z,8.07
2022-09-06T20:51:15.041Z,4.60
2022-09-06T20:53:43.086Z,7.60
2022-09-06T20:56:12.257Z,4.03
2022-09-06T20:58:42.980Z,4.87
2022-09-06T21:01:15.239Z,5.80
2022-09-06T21:03:43.843Z,5.10
2022-09-06T21:06:12.935Z,6.43
2022-09-06T21:08:43.109Z,5.40
2022-09-06T21:11:11.913Z,4.87
2022-09-06T21:13:39.679Z,4.73
2022-09-06T21:16:08.175Z,5.17
2022-09-06T21:18:37.679Z,4.87
2022-09-06T21:21:06.289Z,4.83
2022-09-06T21:23:35.334Z,5.80
2022-09-06T21:26:04.231Z,6.30
2022-09-06T21:28:33.333Z,8.53
2022-09-06T21:31:01.740Z,5.83
2022-09-06T21:33:30.397Z,5.50
2022-09-06T21:36:06.930Z,5.17
2022-09-06T21:38:35.307Z,4.87
2022-09-06T21:41:03.485Z,5.93
2022-09-06T21:43:32.720Z,6.60
2022-09-06T21:46:02.273Z,5.63
2022-09-06T21:48:30.156Z,5.10
2022-09-06T21:50:58.338Z,5.93
2022-09-06T21:53:27.821Z,7.13
2022-09-06T21:56:00.317Z,5.63
2022-09-06T21:58:28.321Z,4.30
2022-09-06T22:00:59.334Z,5.30
2022-09-06T22:03:27.579Z,6.30
2022-09-06T22:05:56.057Z,9.87
2022-09-06T22:08:24.296Z,5.40
2022-09-06T22:10:54.212Z,5.83
2022-09-06T22:13:22.527Z,6.07
2022-09-06T22:15:50.305Z,5.53
2022-09-06T22:18:18.092Z,6.57
2022-09-06T22:20:45.867Z,5.27
2022-09-06T22:23:13.745Z,8.23
2022-09-06T22:25:42.895Z,5.20
2022-09-06T22:28:12.419Z,4.93
2022-09-06T22:30:40.280Z,8.33
2022-09-06T22:33:08.326Z,4.27
2022-09-06T22:35:36.717Z,7.50
2022-09-06T22:38:04.442Z,4.90
2022-09-06T22:40:32.498Z,5.80
2022-09-06T22:43:00.614Z,3.83
2022-09-06T22:45:30.032Z,6.03
2022-09-06T22:47:57.885Z,5.70
2022-09-06T22:50:26.282Z,5.90
2022-09-06T22:52:54.191Z,5.17
2022-09-06T22:55:21.997Z,5.53
2022-09-06T22:57:50.068Z,7.03
2022-09-06T23:00:18.984Z,8.30
2022-09-06T23:02:48.215Z,8.17
2022-09-06T23:05:16.489Z,5.73
2022-09-06T23:07:44.700Z,4.87
2022-09-06T23:10:13.779Z,5.60
2022-09-06T23:12:41.643Z,7.33
2022-09-06T23:15:10.486Z,7.20
2022-09-06T23:17:38.560Z,6.77
2022-09-06T23:20:08.935Z,5.80
2022-09-06T23:22:36.756Z,6.80
2022-09-06T23:25:05.082Z,6.13
2022-09-06T23:27:34.253Z,5.30
2022-09-06T23:30:05.380Z,4.93
2022-09-06T23:32:33.583Z,4.83
2022-09-06T23:35:01.467Z,5.67
2022-09-06T23:37:30.574Z,4.80
2022-09-06T23:39:58.397Z,5.13
2022-09-06T23:42:26.496Z,6.57
2022-09-06T23:44:57.708Z,4.90
2022-09-06T23:47:25.959Z,6.03
2022-09-06T23:49:54.193Z,6.50
2022-09-06T23:52:22.019Z,4.93
2022-09-06T23:54:51.760Z,4.60
2022-09-06T23:57:19.711Z,7.50
2022-09-06T23:59:47.577Z,6.83
